createdAt,value
2023-05-09T00:02:09.116Z,98926.63
2023-05-09T00:04:38.343Z,98909.34
2023-05-09T00:07:06.065Z,98913.41
2023-05-09T00:09:33.755Z,98877.78
2023-05-09T00:12:02.531Z,98878.66
2023-05-09T00:14:30.187Z,98863.69
2023-05-09T00:16:59.316Z,98878.28
2023-05-09T00:19:27.078Z,98883.84
2023-05-09T00:21:56.445Z,98898.53
2023-05-09T00:24:24.262Z,98918.69
2023-05-09T00:26:51.971Z,98921.66
2023-05-09T00:29:19.595Z,98946.81
2023-05-09T00:31:47.312Z,98934.78
2023-05-09T00:34:15.025Z,98907.88
2023-05-09T00:36:42.806Z,98906.91
2023-05-09T00:39:12.507Z,98893.72
2023-05-09T00:41:40.607Z,98887.41
2023-05-09T00:44:08.414Z,98867.38
2023-05-09T00:46:36.423Z,98843.22
2023-05-09T00:49:04.496Z,98830.00
2023-05-09T00:51:32.628Z,98812.66
2023-05-09T00:54:00.397Z,98765.34
2023-05-09T00:56:29.425Z,98773.59
2023-05-09T00:58:57.140Z,98748.94
2023-05-09T01:01:25.078Z,98738.91
2023-05-09T01:03:53.431Z,98722.59
2023-05-09T01:06:26.881Z,98699.03
2023-05-09T01:09:03.652Z,98682.06
2023-05-09T01:11:37.884Z,98671.63
2023-05-09T01:14:13.152Z,98638.13
2023-05-09T01:16:47.899Z,98617.44
2023-05-09T01:19:37.666Z,98601.69
2023-05-09T01:22:10.004Z,98592.78
2023-05-09T01:25:23.339Z,98572.19
2023-05-09T01:28:00.857Z,98570.81
2023-05-09T01:30:32.127Z,98566.06
2023-05-09T01:33:02.407Z,98552.66
2023-05-09T01:35:33.819Z,98559.72
2023-05-09T01:38:05.832Z,98551.38
2023-05-09T01:40:34.970Z,98542.50
2023-05-09T01:43:08.308Z,98544.31
2023-05-09T01:45:39.131Z,98576.69
2023-05-09T01:48:08.638Z,98553.09
2023-05-09T01:50:37.039Z,98531.91
2023-05-09T01:53:06.824Z,98519.13
2023-05-09T01:55:37.137Z,98507.06
2023-05-09T01:58:06.504Z,98510.00
2023-05-09T02:00:35.244Z,98515.53
2023-05-09T02:03:05.169Z,98536.00
2023-05-09T02:05:33.608Z,98548.09
2023-05-09T02:08:02.169Z,98562.81
2023-05-09T02:10:30.362Z,98585.88
2023-05-09T02:12:58.233Z,98602.72
2023-05-09T02:15:26.515Z,98624.69
2023-05-09T02:17:54.331Z,98651.97
2023-05-09T02:20:23.489Z,98660.84
2023-05-09T02:22:51.745Z,98655.59
2023-05-09T02:25:31.387Z,98670.16
2023-05-09T02:28:00.250Z,98656.34
2023-05-09T02:30:32.230Z,98651.88
2023-05-09T02:33:11.869Z,98659.06
2023-05-09T02:35:42.408Z,98646.69
2023-05-09T02:38:10.210Z,98621.69
2023-05-09T02:40:40.286Z,98603.59
2023-05-09T02:43:07.893Z,98603.81
2023-05-09T02:45:35.610Z,98616.00
2023-05-09T02:48:03.605Z,98641.81
2023-05-09T02:50:32.281Z,98614.31
2023-05-09T02:53:01.300Z,98576.25
2023-05-09T02:55:28.896Z,98535.53
2023-05-09T02:58:09.279Z,98494.94
2023-05-09T03:00:40.920Z,98484.13
2023-05-09T03:03:08.914Z,98483.88
2023-05-09T03:05:36.648Z,98465.59
2023-05-09T03:08:06.436Z,98475.75
2023-05-09T03:10:34.198Z,98482.00
2023-05-09T03:13:02.428Z,98478.00
2023-05-09T03:15:30.141Z,98454.06
2023-05-09T03:17:58.151Z,98448.88
2023-05-09T03:20:27.375Z,98431.78
2023-05-09T03:22:56.165Z,98391.44
2023-05-09T03:25:26.358Z,98351.13
2023-05-09T03:27:54.106Z,98322.06
2023-05-09T03:30:21.756Z,98311.81
2023-05-09T03:32:49.550Z,98290.88
2023-05-09T03:35:17.444Z,98274.59
2023-05-09T03:37:45.131Z,98258.66
2023-05-09T03:40:13.343Z,98273.53
2023-05-09T03:42:42.450Z,98252.56
2023-05-09T03:45:11.312Z,98223.25
2023-05-09T03:47:39.077Z,98236.34
2023-05-09T03:50:08.184Z,98224.81
2023-05-09T03:52:37.222Z,98214.06
2023-05-09T03:55:05.801Z,98209.50
2023-05-09T03:57:34.014Z,98222.16
2023-05-09T04:00:03.539Z,98208.53
2023-05-09T04:02:31.576Z,98199.63
2023-05-09T04:04:59.419Z,98198.06
2023-05-09T04:07:28.549Z,98176.59
2023-05-09T04:09:56.611Z,98190.44
2023-05-09T04:12:24.479Z,98187.28
2023-05-09T04:14:52.783Z,98186.69
2023-05-09T04:17:21.824Z,98174.97
2023-05-09T04:19:49.707Z,98173.34
2023-05-09T04:22:17.462Z,98152.88
2023-05-09T04:24:45.572Z,98135.59
2023-05-09T04:27:13.254Z,98123.06
2023-05-09T04:29:41.039Z,98090.84
2023-05-09T04:32:08.883Z,98084.81
2023-05-09T04:34:37.938Z,98074.59
2023-05-09T04:37:05.825Z,98054.44
2023-05-09T04:39:33.605Z,98032.44
2023-05-09T04:42:01.292Z,97999.44
2023-05-09T04:44:28.984Z,97977.69
2023-05-09T04:46:58.117Z,97969.31
2023-05-09T04:49:25.952Z,97955.19
2023-05-09T04:51:55.099Z,97916.13
2023-05-09T04:54:22.744Z,97894.13
2023-05-09T04:56:50.755Z,97901.75
2023-05-09T04:59:18.559Z,97893.63
2023-05-09T05:01:46.349Z,97875.28
2023-05-09T05:04:14.249Z,97868.16
2023-05-09T05:06:42.282Z,97873.94
2023-05-09T05:09:11.242Z,97867.41
2023-05-09T05:11:39.483Z,97886.81
2023-05-09T05:14:08.017Z,97859.19
2023-05-09T05:16:35.783Z,97871.56
2023-05-09T05:19:03.498Z,97859.56
2023-05-09T05:21:31.177Z,97872.56
2023-05-09T05:23:58.885Z,97862.34
2023-05-09T05:26:29.011Z,97870.47
2023-05-09T05:28:57.190Z,97871.00
2023-05-09T05:31:25.070Z,97878.28
2023-05-09T05:33:52.815Z,97891.97
2023-05-09T05:36:20.574Z,97881.94
2023-05-09T05:38:48.144Z,97869.38
2023-05-09T05:41:15.854Z,97887.66
2023-05-09T05:43:45.005Z,97906.84
2023-05-09T05:46:12.620Z,97911.03
2023-05-09T05:48:40.278Z,97887.75
2023-05-09T05:51:07.929Z,97912.75
2023-05-09T05:53:35.708Z,97916.44
2023-05-09T05:56:03.576Z,97935.59
2023-05-09T05:58:31.609Z,97947.66
2023-05-09T06:01:00.802Z,97981.53
2023-05-09T06:03:28.619Z,97949.81
2023-05-09T06:05:56.962Z,98007.69
2023-05-09T06:08:24.624Z,98026.06
2023-05-09T06:10:52.324Z,98016.00
2023-05-09T06:13:19.998Z,98030.22
2023-05-09T06:15:47.885Z,98060.69
2023-05-09T06:18:16.972Z,98076.94
2023-05-09T06:20:44.672Z,98083.22
2023-05-09T06:23:12.402Z,98081.94
2023-05-09T06:25:40.035Z,98090.56
2023-05-09T06:28:07.664Z,98089.50
2023-05-09T06:30:36.437Z,98106.06
2023-05-09T06:33:04.197Z,98098.47
2023-05-09T06:35:33.290Z,98105.25
2023-05-09T06:38:01.078Z,98102.41
2023-05-09T06:40:28.765Z,98089.25
2023-05-09T06:42:56.479Z,98095.84
2023-05-09T06:45:24.297Z,98066.44
2023-05-09T06:47:52.007Z,98063.84
2023-05-09T06:50:19.740Z,98049.16
2023-05-09T06:52:48.738Z,98020.06
2023-05-09T06:55:16.696Z,98014.59
2023-05-09T06:57:44.669Z,98015.13
2023-05-09T07:00:13.429Z,97980.47
2023-05-09T07:02:42.227Z,97953.16
2023-05-09T07:05:11.031Z,97950.84
2023-05-09T07:07:38.729Z,97927.47
2023-05-09T07:10:12.378Z,97910.22
2023-05-09T07:12:41.145Z,97883.66
2023-05-09T07:15:10.184Z,97862.34
2023-05-09T07:17:37.904Z,97884.19
2023-05-09T07:20:07.118Z,97869.25
2023-05-09T07:22:37.205Z,97860.66
2023-05-09T07:25:09.187Z,97849.91
2023-05-09T07:27:37.004Z,97831.56
2023-05-09T07:30:05.055Z,97805.09
2023-05-09T07:32:32.789Z,97787.75
2023-05-09T07:35:00.641Z,97753.75
2023-05-09T07:37:28.481Z,97757.63
2023-05-09T07:39:56.347Z,97737.50
2023-05-09T07:42:25.431Z,97714.34
2023-05-09T07:44:53.322Z,97667.03
2023-05-09T07:47:21.188Z,97653.16
2023-05-09T07:49:48.889Z,97660.38
2023-05-09T07:52:17.291Z,97650.44
2023-05-09T07:54:45.357Z,97623.91
2023-05-09T07:57:13.053Z,97607.06
2023-05-09T07:59:42.423Z,97584.47
2023-05-09T08:02:10.210Z,97581.44
2023-05-09T08:04:41.177Z,97564.56
2023-05-09T08:07:09.220Z,97556.47
2023-05-09T08:09:37.517Z,97546.59
2023-05-09T08:12:06.063Z,97533.22
2023-05-09T08:14:33.798Z,97518.94
2023-05-09T08:17:02.928Z,97511.63
2023-05-09T08:19:30.610Z,97487.91
2023-05-09T08:21:58.399Z,97485.56
2023-05-09T08:24:26.193Z,97475.63
2023-05-09T08:26:53.872Z,97467.13
2023-05-09T08:29:21.658Z,97454.31
2023-05-09T08:31:49.481Z,97459.13
2023-05-09T08:34:18.821Z,97452.53
2023-05-09T08:36:47.025Z,97449.91
2023-05-09T08:39:14.754Z,97425.03
2023-05-09T08:41:43.182Z,97436.53
2023-05-09T08:44:11.384Z,97434.56
2023-05-09T08:46:44.172Z,97454.31
2023-05-09T08:49:12.137Z,97444.78
2023-05-09T08:51:41.795Z,97433.06
2023-05-09T08:54:09.661Z,97443.63
2023-05-09T08:56:37.639Z,97430.72
2023-05-09T08:59:06.526Z,97438.03
2023-05-09T09:01:35.962Z,97440.38
2023-05-09T09:04:06.344Z,97476.88
2023-05-09T09:06:34.827Z,97495.03
2023-05-09T09:09:07.066Z,97514.72
2023-05-09T09:11:36.343Z,97534.09
2023-05-09T09:14:11.584Z,97525.28
2023-05-09T09:16:41.042Z,97524.44
2023-05-09T09:19:12.683Z,97516.56
2023-05-09T09:21:42.772Z,97454.13
2023-05-09T09:24:14.852Z,97472.94
2023-05-09T09:26:50.183Z,97495.94
2023-05-09T09:29:19.464Z,97503.34
2023-05-09T09:31:48.635Z,97505.97
2023-05-09T09:34:24.288Z,97500.88
2023-05-09T09:36:52.228Z,97468.81
2023-05-09T09:39:22.079Z,97497.75
2023-05-09T09:41:50.062Z,97490.94
2023-05-09T09:44:18.966Z,97485.63
2023-05-09T09:46:48.369Z,97481.22
2023-05-09T09:49:17.782Z,97485.13
2023-05-09T09:51:45.692Z,97477.47
2023-05-09T09:54:13.894Z,97492.78
2023-05-09T09:56:47.508Z,97493.69
2023-05-09T09:59:17.163Z,97476.34
2023-05-09T10:01:59.051Z,97472.94
2023-05-09T10:04:28.957Z,97452.81
2023-05-09T10:06:58.029Z,97452.06
2023-05-09T10:09:27.057Z,97459.88
2023-05-09T10:11:57.301Z,97453.91
2023-05-09T10:14:26.280Z,97460.50
2023-05-09T10:16:56.624Z,97465.13
2023-05-09T10:19:26.406Z,97461.44
2023-05-09T10:21:56.381Z,97444.63
2023-05-09T10:24:29.468Z,97415.84
2023-05-09T10:27:05.302Z,97385.84
2023-05-09T10:29:37.444Z,97419.53
2023-05-09T10:32:14.436Z,97421.72
2023-05-09T10:34:48.520Z,97407.47
2023-05-09T10:37:17.188Z,97407.06
2023-05-09T10:39:45.023Z,97413.94
2023-05-09T10:42:14.879Z,97418.59
2023-05-09T10:44:44.510Z,97422.72
2023-05-09T10:47:13.228Z,97411.28
2023-05-09T10:49:41.267Z,97409.53
2023-05-09T10:52:09.066Z,97388.47
2023-05-09T10:54:37.999Z,97384.00
2023-05-09T10:57:07.068Z,97378.50
2023-05-09T10:59:40.284Z,97375.09
2023-05-09T11:02:13.778Z,97371.03
2023-05-09T11:04:41.818Z,97368.91
2023-05-09T11:07:25.471Z,97368.00
2023-05-09T11:09:54.126Z,97355.91
2023-05-09T11:12:24.819Z,97345.09
2023-05-09T11:14:56.070Z,97358.25
2023-05-09T11:17:32.236Z,97353.81
2023-05-09T11:20:03.090Z,97363.09
2023-05-09T11:22:32.929Z,97377.00
2023-05-09T11:25:04.702Z,97383.84
2023-05-09T11:27:40.115Z,97361.88
2023-05-09T11:30:11.692Z,97339.19
2023-05-09T11:32:44.777Z,97326.63
2023-05-09T11:35:15.745Z,97295.56
2023-05-09T11:37:49.064Z,97303.44
2023-05-09T11:40:19.120Z,97285.78
2023-05-09T11:42:48.595Z,97286.34
2023-05-09T11:45:18.404Z,97269.94
2023-05-09T11:47:47.150Z,97261.00
2023-05-09T11:50:15.785Z,97269.53
2023-05-09T11:52:43.744Z,97262.19
2023-05-09T11:55:14.254Z,97281.75
2023-05-09T11:57:43.255Z,97262.69
2023-05-09T12:00:11.672Z,97275.72
2023-05-09T12:02:41.206Z,97254.97
2023-05-09T12:05:10.813Z,97252.06
2023-05-09T12:07:39.561Z,97268.72
2023-05-09T12:10:09.023Z,97271.25
2023-05-09T12:12:37.327Z,97258.94
2023-05-09T12:15:08.129Z,97264.84
2023-05-09T12:17:36.276Z,97253.53
2023-05-09T12:20:06.014Z,97266.16
2023-05-09T12:22:34.220Z,97271.13
2023-05-09T12:25:03.970Z,97268.41
2023-05-09T12:27:33.122Z,97268.03
2023-05-09T12:30:01.857Z,97240.16
2023-05-09T12:32:32.901Z,97217.47
2023-05-09T12:35:01.510Z,97204.53
2023-05-09T12:37:33.267Z,97221.59
2023-05-09T12:40:06.452Z,97216.72
2023-05-09T12:42:35.230Z,97212.94
2023-05-09T12:45:03.805Z,97215.84
2023-05-09T12:47:32.526Z,97203.03
2023-05-09T12:50:00.448Z,97169.50
2023-05-09T12:52:41.752Z,97154.16
2023-05-09T12:55:20.651Z,97149.59
2023-05-09T12:57:59.663Z,97118.69
2023-05-09T13:00:27.779Z,97122.00
2023-05-09T13:02:55.689Z,97134.72
2023-05-09T13:05:24.452Z,97134.88
2023-05-09T13:07:53.678Z,97125.22
2023-05-09T13:10:25.216Z,97131.91
2023-05-09T13:12:53.466Z,97128.44
2023-05-09T13:15:23.056Z,97127.56
2023-05-09T13:17:52.319Z,97107.13
2023-05-09T13:20:20.928Z,97124.16
2023-05-09T13:22:48.710Z,97111.69
2023-05-09T13:25:17.985Z,97096.63
2023-05-09T13:27:46.023Z,97096.94
2023-05-09T13:30:15.991Z,97103.03
2023-05-09T13:32:44.236Z,97106.44
2023-05-09T13:35:12.243Z,97055.91
2023-05-09T13:37:40.199Z,97079.41
2023-05-09T13:40:09.192Z,97065.44
2023-05-09T13:42:38.257Z,97076.47
2023-05-09T13:45:07.010Z,97069.97
2023-05-09T13:47:36.606Z,97060.13
2023-05-09T13:50:05.493Z,97077.50
2023-05-09T13:52:33.270Z,97096.69
2023-05-09T13:55:01.010Z,97105.06
2023-05-09T13:57:28.911Z,97131.63
2023-05-09T13:59:58.154Z,97133.47
2023-05-09T14:02:25.972Z,97138.94
2023-05-09T14:04:54.570Z,97161.44
2023-05-09T14:07:22.390Z,97156.91
2023-05-09T14:09:54.011Z,97136.00
2023-05-09T14:12:26.780Z,97137.66
2023-05-09T14:14:54.574Z,97124.41
2023-05-09T14:17:23.991Z,97143.88
2023-05-09T14:19:51.737Z,97136.00
2023-05-09T14:22:19.460Z,97161.56
2023-05-09T14:24:47.334Z,97149.63
2023-05-09T14:27:15.134Z,97137.13
2023-05-09T14:29:43.417Z,97150.88
2023-05-09T14:32:12.724Z,97163.31
2023-05-09T14:34:42.019Z,97167.03
2023-05-09T14:37:13.762Z,97160.63
2023-05-09T14:39:42.127Z,97162.63
2023-05-09T14:42:11.549Z,97161.47
2023-05-09T14:44:39.698Z,97175.47
2023-05-09T14:47:09.135Z,97155.44
2023-05-09T14:49:38.641Z,97159.72
2023-05-09T14:52:08.015Z,97181.16
2023-05-09T14:54:36.495Z,97172.06
2023-05-09T14:57:07.075Z,97170.97
2023-05-09T14:59:37.058Z,97162.06
2023-05-09T15:02:05.523Z,97150.56
2023-05-09T15:04:33.302Z,97170.34
2023-05-09T15:07:01.274Z,97179.94
2023-05-09T15:09:30.461Z,97174.13
2023-05-09T15:11:58.689Z,97164.00
2023-05-09T15:14:26.712Z,97196.66
2023-05-09T15:16:55.443Z,97212.41
2023-05-09T15:19:23.380Z,97207.09
2023-05-09T15:21:51.652Z,97223.50
2023-05-09T15:24:19.365Z,97206.09
2023-05-09T15:26:48.486Z,97210.00
2023-05-09T15:29:16.391Z,97232.91
2023-05-09T15:31:44.364Z,97248.00
2023-05-09T15:34:12.821Z,97247.31
2023-05-09T15:36:40.777Z,97256.75
2023-05-09T15:39:08.645Z,97271.94
2023-05-09T15:41:36.571Z,97285.44
2023-05-09T15:44:07.320Z,97289.25
2023-05-09T15:46:35.398Z,97257.84
2023-05-09T15:49:03.351Z,97281.00
2023-05-09T15:51:31.782Z,97321.44
2023-05-09T15:53:59.687Z,97328.22
2023-05-09T15:56:27.420Z,97358.44
2023-05-09T15:58:55.189Z,97348.66
2023-05-09T16:01:24.401Z,97326.03
2023-05-09T16:03:52.484Z,97334.19
2023-05-09T16:06:20.491Z,97367.25
2023-05-09T16:08:48.795Z,97375.13
2023-05-09T16:11:16.580Z,97391.16
2023-05-09T16:13:46.578Z,97361.31
2023-05-09T16:16:14.441Z,97355.00
2023-05-09T16:18:43.777Z,97351.69
2023-05-09T16:21:12.264Z,97369.41
2023-05-09T16:23:40.548Z,97380.47
2023-05-09T16:26:08.437Z,97405.00
2023-05-09T16:28:36.261Z,97418.03
2023-05-09T16:31:05.055Z,97434.56
2023-05-09T16:33:33.616Z,97425.84
2023-05-09T16:36:02.725Z,97419.88
2023-05-09T16:38:30.605Z,97410.75
2023-05-09T16:40:58.523Z,97401.03
2023-05-09T16:43:26.350Z,97391.00
2023-05-09T16:45:54.095Z,97394.22
2023-05-09T16:48:22.040Z,97397.28
2023-05-09T16:50:53.598Z,97375.09
2023-05-09T16:53:23.662Z,97369.63
2023-05-09T16:55:53.910Z,97343.34
2023-05-09T16:58:21.909Z,97321.47
2023-05-09T17:00:51.389Z,97330.72
2023-05-09T17:03:19.202Z,97341.03
2023-05-09T17:05:46.988Z,97347.47
2023-05-09T17:08:14.839Z,97336.84
2023-05-09T17:10:44.366Z,97348.56
2023-05-09T17:13:12.444Z,97339.19
2023-05-09T17:15:40.495Z,97299.47
2023-05-09T17:18:08.263Z,97336.22
2023-05-09T17:20:36.107Z,97304.59
2023-05-09T17:23:04.164Z,97332.91
2023-05-09T17:25:31.899Z,97324.81
2023-05-09T17:28:01.071Z,97304.16
2023-05-09T17:30:29.261Z,97322.75
2023-05-09T17:32:57.040Z,97306.16
2023-05-09T17:35:25.767Z,97301.13
2023-05-09T17:37:53.299Z,97314.13
2023-05-09T17:40:21.204Z,97300.63
2023-05-09T17:42:49.041Z,97296.66
2023-05-09T17:45:18.290Z,97299.00
2023-05-09T17:47:46.041Z,97322.63
2023-05-09T17:50:14.537Z,97303.03
2023-05-09T17:52:42.315Z,97326.03
2023-05-09T17:55:10.981Z,97321.00
2023-05-09T17:57:38.518Z,97299.97
2023-05-09T18:00:08.519Z,97323.06
2023-05-09T18:02:37.615Z,97341.13
2023-05-09T18:05:06.049Z,97344.31
2023-05-09T18:07:33.989Z,97347.03
2023-05-09T18:10:01.708Z,97326.25
2023-05-09T18:12:31.093Z,97317.59
2023-05-09T18:14:58.849Z,97299.59
2023-05-09T18:17:26.622Z,97306.09
2023-05-09T18:19:55.778Z,97326.97
2023-05-09T18:22:24.146Z,97339.06
2023-05-09T18:24:53.356Z,97320.81
2023-05-09T18:27:21.480Z,97332.25
2023-05-09T18:29:49.370Z,97340.13
2023-05-09T18:32:17.686Z,97338.66
2023-05-09T18:34:48.312Z,97341.41
2023-05-09T18:37:17.765Z,97335.81
2023-05-09T18:39:45.796Z,97350.47
2023-05-09T18:42:15.936Z,97347.34
2023-05-09T18:44:44.318Z,97319.78
2023-05-09T18:47:12.389Z,97340.63
2023-05-09T18:49:40.534Z,97364.94
2023-05-09T18:52:08.226Z,97401.25
2023-05-09T18:54:38.246Z,97401.19
2023-05-09T18:57:06.226Z,97384.16
2023-05-09T18:59:33.936Z,97391.09
2023-05-09T19:02:01.702Z,97395.19
2023-05-09T19:04:29.469Z,97430.31
2023-05-09T19:06:59.234Z,97427.41
2023-05-09T19:09:26.974Z,97446.16
2023-05-09T19:11:56.571Z,97451.16
2023-05-09T19:14:24.375Z,97456.44
2023-05-09T19:16:52.161Z,97460.06
2023-05-09T19:19:19.904Z,97475.44
2023-05-09T19:21:50.144Z,97471.31
2023-05-09T19:24:18.035Z,97481.53
2023-05-09T19:26:45.759Z,97455.38
2023-05-09T19:29:14.794Z,97470.66
2023-05-09T19:31:42.546Z,97477.72
2023-05-09T19:34:10.195Z,97491.59
2023-05-09T19:36:37.910Z,97502.34
2023-05-09T19:39:06.241Z,97501.00
2023-05-09T19:41:33.867Z,97504.63
2023-05-09T19:44:01.758Z,97509.66
2023-05-09T19:46:30.900Z,97514.66
2023-05-09T19:48:58.830Z,97516.72
2023-05-09T19:51:26.828Z,97516.13
2023-05-09T19:53:54.560Z,97504.91
2023-05-09T19:56:23.177Z,97510.84
2023-05-09T19:58:50.801Z,97536.91
2023-05-09T20:01:19.373Z,97539.84
2023-05-09T20:03:50.621Z,97539.28
2023-05-09T20:06:18.924Z,97527.56
2023-05-09T20:08:47.046Z,97540.66
2023-05-09T20:11:14.953Z,97532.25
2023-05-09T20:13:42.876Z,97552.78
2023-05-09T20:16:10.923Z,97544.41
2023-05-09T20:18:39.122Z,97537.88
2023-05-09T20:21:09.733Z,97541.81
2023-05-09T20:23:38.145Z,97547.03
2023-05-09T20:26:06.314Z,97531.66
2023-05-09T20:28:34.205Z,97554.41
2023-05-09T20:31:02.306Z,97515.78
2023-05-09T20:33:30.344Z,97545.78
2023-05-09T20:35:58.142Z,97560.22
2023-05-09T20:38:27.430Z,97540.72
2023-05-09T20:40:55.380Z,97555.22
2023-05-09T20:43:23.525Z,97578.84
2023-05-09T20:45:51.766Z,97580.94
2023-05-09T20:48:22.499Z,97576.28
2023-05-09T20:50:50.495Z,97552.16
2023-05-09T20:53:18.432Z,97566.75
2023-05-09T20:55:49.629Z,97555.47
2023-05-09T20:58:18.567Z,97546.56
2023-05-09T21:00:47.153Z,97560.72
2023-05-09T21:03:15.126Z,97553.13
2023-05-09T21:05:43.181Z,97552.34
2023-05-09T21:08:11.154Z,97553.91
2023-05-09T21:10:39.040Z,97533.47
2023-05-09T21:13:08.691Z,97525.41
2023-05-09T21:15:41.194Z,97543.47
2023-05-09T21:18:09.238Z,97531.94
2023-05-09T21:20:37.282Z,97520.91
2023-05-09T21:23:05.210Z,97531.41
2023-05-09T21:25:33.097Z,97512.84
2023-05-09T21:28:01.278Z,97531.72
2023-05-09T21:30:30.608Z,97525.72
2023-05-09T21:32:58.658Z,97514.72
2023-05-09T21:35:26.710Z,97516.81
2023-05-09T21:37:54.665Z,97511.09
2023-05-09T21:40:22.655Z,97491.44
2023-05-09T21:42:50.559Z,97468.31
2023-05-09T21:45:19.217Z,97434.56
2023-05-09T21:47:48.861Z,97449.41
2023-05-09T21:50:17.149Z,97465.94
2023-05-09T21:52:45.370Z,97447.53
2023-05-09T21:55:13.337Z,97454.63
2023-05-09T21:57:41.204Z,97461.97
2023-05-09T22:00:14.384Z,97457.66
2023-05-09T22:02:42.945Z,97476.69
2023-05-09T22:05:13.051Z,97474.59
2023-05-09T22:07:40.737Z,97490.59
2023-05-09T22:10:09.484Z,97472.44
2023-05-09T22:12:37.122Z,97486.09
2023-05-09T22:15:05.516Z,97486.66
2023-05-09T22:17:33.784Z,97496.59
2023-05-09T22:20:01.532Z,97500.25
2023-05-09T22:22:31.436Z,97501.59
2023-05-09T22:24:59.213Z,97492.69
2023-05-09T22:27:26.975Z,97495.81
2023-05-09T22:29:55.441Z,97488.22
2023-05-09T22:32:23.063Z,97468.47
2023-05-09T22:34:50.767Z,97487.69
2023-05-09T22:37:18.483Z,97493.19
2023-05-09T22:40:24.234Z,97491.97
2023-05-09T22:47:04.408Z,97478.53
2023-05-09T22:49:35.551Z,97483.69
2023-05-09T22:52:03.596Z,97491.81
2023-05-09T22:54:31.441Z,97487.03
2023-05-09T22:57:00.491Z,97487.53
2023-05-09T22:59:28.182Z,97511.44
2023-05-09T23:01:56.029Z,97517.00
2023-05-09T23:04:23.773Z,97535.25
2023-05-09T23:06:51.576Z,97534.97
2023-05-09T23:09:19.401Z,97552.31
2023-05-09T23:11:47.184Z,97544.94
2023-05-09T23:14:43.813Z,97561.16
2023-05-09T23:17:11.708Z,97568.50
2023-05-09T23:19:44.055Z,97577.13
2023-05-09T23:22:21.270Z,97581.06
2023-05-09T23:25:43.348Z,97575.56
2023-05-09T23:28:11.133Z,97592.84
2023-05-09T23:30:40.152Z,97608.53
2023-05-09T23:33:07.820Z,97609.84
2023-05-09T23:35:35.964Z,97616.41
2023-05-09T23:38:04.604Z,97637.34
2023-05-09T23:40:32.172Z,97634.66
2023-05-09T23:42:59.832Z,97640.41
2023-05-09T23:45:27.632Z,97641.75
2023-05-09T23:47:57.175Z,97665.88
2023-05-09T23:50:24.904Z,97679.50
2023-05-09T23:52:52.574Z,97678.94
2023-05-09T23:55:20.436Z,97682.38
2023-05-09T23:57:48.659Z,97677.59
